createdAt,value
2019-05-09T00:00:14.266Z,993.92
2019-05-09T00:01:14.300Z,993.89
2019-05-09T00:02:13.864Z,993.87
2019-05-09T00:03:13.962Z,993.86
2019-05-09T00:04:14.034Z,993.90
2019-05-09T00:05:13.943Z,993.90
2019-05-09T00:06:13.845Z,993.85
2019-05-09T00:07:14.051Z,993.89
2019-05-09T00:08:14.044Z,993.93
2019-05-09T00:09:13.947Z,993.90
2019-05-09T00:10:14.225Z,993.85
2019-05-09T00:11:14.487Z,993.83
2019-05-09T00:12:14.172Z,993.85
2019-05-09T00:13:13.860Z,993.88
2019-05-09T00:14:13.707Z,993.91
2019-05-09T00:15:13.729Z,993.93
2019-05-09T00:16:14.490Z,993.97
2019-05-09T00:17:14.061Z,993.94
2019-05-09T00:18:14.264Z,993.92
2019-05-09T00:19:13.655Z,993.92
2019-05-09T00:20:13.679Z,993.94
2019-05-09T00:21:13.543Z,993.90
2019-05-09T00:22:13.856Z,993.90
2019-05-09T00:23:13.685Z,993.97
2019-05-09T00:24:14.020Z,993.95
2019-05-09T00:25:13.414Z,993.96
2019-05-09T00:26:13.580Z,993.93
2019-05-09T00:27:14.179Z,993.91
2019-05-09T00:28:13.652Z,993.98
2019-05-09T00:29:14.100Z,994.00
2019-05-09T00:30:13.961Z,993.96
2019-05-09T00:31:13.723Z,993.96
2019-05-09T00:32:13.740Z,993.97
2019-05-09T00:33:14.295Z,994.01
2019-05-09T00:34:14.381Z,994.00
2019-05-09T00:35:14.166Z,994.00
2019-05-09T00:36:14.071Z,993.99
2019-05-09T00:37:13.593Z,993.98
2019-05-09T00:38:13.423Z,994.01
2019-05-09T00:39:13.477Z,993.99
2019-05-09T00:40:13.375Z,993.99
2019-05-09T00:41:14.003Z,994.00
2019-05-09T00:42:13.804Z,993.98
2019-05-09T00:43:13.317Z,994.01
2019-05-09T00:44:13.858Z,993.98
2019-05-09T00:45:13.385Z,993.96
2019-05-09T00:46:14.127Z,993.98
2019-05-09T00:47:13.561Z,993.99
2019-05-09T00:48:14.064Z,993.96
2019-05-09T00:49:14.022Z,993.93
2019-05-09T00:50:13.282Z,993.95
2019-05-09T00:51:14.035Z,993.97
2019-05-09T00:52:14.099Z,993.96
2019-05-09T00:53:13.798Z,993.92
2019-05-09T00:54:13.592Z,993.98
2019-05-09T00:55:13.288Z,993.98
2019-05-09T00:56:13.512Z,993.97
2019-05-09T00:57:13.775Z,993.93
2019-05-09T00:58:13.651Z,993.98
2019-05-09T00:59:13.604Z,993.97
2019-05-09T01:00:14.554Z,993.97
2019-05-09T01:01:13.342Z,993.97
2019-05-09T01:02:13.250Z,993.98
2019-05-09T01:03:14.150Z,994.03
2019-05-09T01:04:13.631Z,993.98
2019-05-09T01:05:13.301Z,994.00
2019-05-09T01:06:13.552Z,993.97
2019-05-09T01:07:13.896Z,993.94
2019-05-09T01:08:13.691Z,993.93
2019-05-09T01:09:13.770Z,993.93
2019-05-09T01:10:13.499Z,993.90
2019-05-09T01:11:15.462Z,993.86
2019-05-09T01:12:14.373Z,993.84
2019-05-09T01:13:14.154Z,993.91
2019-05-09T01:14:14.234Z,993.87
2019-05-09T01:15:13.428Z,993.82
2019-05-09T01:16:13.499Z,993.84
2019-05-09T01:17:13.709Z,993.85
2019-05-09T01:18:13.314Z,993.83
2019-05-09T01:19:14.090Z,993.81
2019-05-09T01:20:14.724Z,993.80
2019-05-09T01:21:13.472Z,993.82
2019-05-09T01:22:13.297Z,993.83
2019-05-09T01:23:14.232Z,993.81
2019-05-09T01:24:13.887Z,993.83
2019-05-09T01:25:13.416Z,993.84
2019-05-09T01:26:13.334Z,993.83
2019-05-09T01:27:14.186Z,993.79
2019-05-09T01:28:13.972Z,993.79
2019-05-09T01:29:13.745Z,993.82
2019-05-09T01:30:13.541Z,993.79
2019-05-09T01:31:13.282Z,993.80
2019-05-09T01:32:14.391Z,993.77
2019-05-09T01:33:14.243Z,993.74
2019-05-09T01:34:13.315Z,993.75
2019-05-09T01:35:13.243Z,993.77
2019-05-09T01:36:14.379Z,993.82
2019-05-09T01:37:14.046Z,993.77
2019-05-09T01:38:14.165Z,993.78
2019-05-09T01:39:13.823Z,993.83
2019-05-09T01:40:13.254Z,993.79
2019-05-09T01:41:27.136Z,993.85
2019-05-09T01:42:13.869Z,993.84
2019-05-09T01:43:13.869Z,993.84
2019-05-09T01:44:13.439Z,993.87
2019-05-09T01:45:14.105Z,993.87
2019-05-09T01:46:14.466Z,993.85
2019-05-09T01:47:14.115Z,993.85
2019-05-09T01:48:14.005Z,993.87
2019-05-09T01:50:23.194Z,993.96
2019-05-09T01:51:23.155Z,993.96
2019-05-09T01:52:23.201Z,993.93
2019-05-09T01:53:21.266Z,993.88
2019-05-09T01:54:21.202Z,993.91
2019-05-09T01:55:23.413Z,993.90
2019-05-09T01:56:23.311Z,993.91
2019-05-09T01:57:23.133Z,993.90
2019-05-09T01:58:23.135Z,993.89
2019-05-09T01:59:21.160Z,993.92
2019-05-09T02:00:21.137Z,993.92
2019-05-09T02:01:21.159Z,993.89
2019-05-09T02:02:23.422Z,993.85
2019-05-09T02:03:23.328Z,993.86
2019-05-09T02:04:21.094Z,993.88
2019-05-09T02:05:21.085Z,993.88
2019-05-09T02:06:21.095Z,993.91
2019-05-09T02:07:21.093Z,993.93
2019-05-09T02:08:23.464Z,993.92
2019-05-09T02:09:23.261Z,993.88
2019-05-09T02:10:23.091Z,993.90
2019-05-09T02:11:21.030Z,993.88
2019-05-09T02:12:21.009Z,993.81
2019-05-09T02:13:22.907Z,993.84
2019-05-09T02:14:21.043Z,993.87
2019-05-09T02:15:21.015Z,993.82
2019-05-09T02:16:23.342Z,993.78
2019-05-09T02:17:23.130Z,993.76
2019-05-09T02:18:22.995Z,993.77
2019-05-09T02:19:20.955Z,993.70
2019-05-09T02:20:20.936Z,993.70
2019-05-09T02:21:20.966Z,993.68
2019-05-09T02:22:20.902Z,993.68
2019-05-09T02:23:20.899Z,993.68
2019-05-09T02:24:23.280Z,993.65
2019-05-09T02:25:20.871Z,993.65
2019-05-09T02:26:20.871Z,993.58
2019-05-09T02:27:20.849Z,993.62
2019-05-09T02:28:20.846Z,993.65
2019-05-09T02:29:22.960Z,993.63
2019-05-09T02:30:20.835Z,993.67
2019-05-09T02:31:20.808Z,993.58
2019-05-09T02:32:23.742Z,993.59
2019-05-09T02:33:20.805Z,993.60
2019-05-09T02:34:20.797Z,993.61
2019-05-09T02:35:20.810Z,993.62
2019-05-09T02:36:20.757Z,993.64
2019-05-09T02:37:20.743Z,993.57
2019-05-09T02:38:20.732Z,993.60
2019-05-09T02:39:20.729Z,993.61
2019-05-09T02:40:20.767Z,993.59
2019-05-09T02:41:20.706Z,993.52
2019-05-09T02:42:20.694Z,993.58
2019-05-09T02:43:20.680Z,993.68
2019-05-09T02:44:20.666Z,993.61
2019-05-09T02:45:20.701Z,993.64
2019-05-09T02:46:20.681Z,993.66
2019-05-09T02:47:20.634Z,993.64
2019-05-09T02:48:20.627Z,993.57
2019-05-09T02:49:20.652Z,993.64
2019-05-09T02:50:20.633Z,993.68
2019-05-09T02:51:20.598Z,993.62
2019-05-09T02:52:20.580Z,993.60
2019-05-09T02:53:20.591Z,993.55
2019-05-09T02:54:20.561Z,993.63
2019-05-09T02:55:20.610Z,993.62
2019-05-09T02:56:20.539Z,993.62
2019-05-09T02:57:20.530Z,993.60
2019-05-09T02:58:20.728Z,993.61
2019-05-09T02:59:20.519Z,993.61
2019-05-09T03:00:20.566Z,993.62
2019-05-09T03:01:20.497Z,993.54
2019-05-09T03:02:20.490Z,993.58
2019-05-09T03:03:20.494Z,993.55
2019-05-09T03:04:20.479Z,993.56
2019-05-09T03:05:20.451Z,993.54
2019-05-09T03:06:20.470Z,993.55
2019-05-09T03:07:20.423Z,993.58
2019-05-09T03:08:20.411Z,993.55
2019-05-09T03:09:20.407Z,993.60
2019-05-09T03:10:20.397Z,993.57
2019-05-09T03:11:20.399Z,993.50
2019-05-09T03:12:30.378Z,993.58
2019-05-09T03:13:21.381Z,993.58
2019-05-09T03:14:20.358Z,993.55
2019-05-09T03:15:20.380Z,993.54
2019-05-09T03:16:20.324Z,993.54
2019-05-09T03:17:20.327Z,993.51
2019-05-09T03:18:20.326Z,993.50
2019-05-09T03:19:20.323Z,993.50
2019-05-09T03:20:20.305Z,993.47
2019-05-09T03:21:20.272Z,993.46
2019-05-09T03:22:20.268Z,993.43
2019-05-09T03:23:20.260Z,993.43
2019-05-09T03:24:20.263Z,993.43
2019-05-09T03:25:20.228Z,993.41
2019-05-09T03:26:20.276Z,993.38
2019-05-09T03:27:20.218Z,993.37
2019-05-09T03:28:20.208Z,993.32
2019-05-09T03:29:20.205Z,993.37
2019-05-09T03:30:20.985Z,993.39
2019-05-09T03:31:20.189Z,993.38
2019-05-09T03:32:20.161Z,993.37
2019-05-09T03:33:20.466Z,993.35
2019-05-09T03:34:20.133Z,993.34
2019-05-09T03:35:20.125Z,993.33
2019-05-09T03:36:20.140Z,993.34
2019-05-09T03:37:20.104Z,993.31
2019-05-09T03:38:20.151Z,993.30
2019-05-09T03:39:20.074Z,993.31
2019-05-09T03:40:20.093Z,993.28
2019-05-09T03:41:20.074Z,993.25
2019-05-09T03:42:23.015Z,993.23
2019-05-09T03:43:21.030Z,993.22
2019-05-09T03:44:20.054Z,993.25
2019-05-09T03:45:20.013Z,993.23
2019-05-09T03:46:20.030Z,993.17
2019-05-09T03:47:19.989Z,993.19
2019-05-09T03:48:19.982Z,993.16
2019-05-09T03:49:19.970Z,993.20
2019-05-09T03:50:19.961Z,993.17
2019-05-09T03:51:19.976Z,993.21
2019-05-09T03:52:19.938Z,993.20
2019-05-09T03:53:19.942Z,993.25
2019-05-09T03:54:19.919Z,993.19
2019-05-09T03:55:19.924Z,993.16
2019-05-09T03:56:19.931Z,993.23
2019-05-09T03:57:19.925Z,993.20
2019-05-09T03:58:19.871Z,993.18
2019-05-09T03:59:19.872Z,993.17
2019-05-09T04:00:19.879Z,993.16
2019-05-09T04:01:19.877Z,993.15
2019-05-09T04:02:19.844Z,993.13
2019-05-09T04:03:20.331Z,993.13
2019-05-09T04:04:19.848Z,993.09
2019-05-09T04:05:19.800Z,993.16
2019-05-09T04:06:19.805Z,993.14
2019-05-09T04:07:19.831Z,993.11
2019-05-09T04:08:19.765Z,993.16
2019-05-09T04:09:19.754Z,993.16
2019-05-09T04:10:19.813Z,993.13
2019-05-09T04:11:19.749Z,993.15
2019-05-09T04:12:19.741Z,993.11
2019-05-09T04:13:19.727Z,993.12
2019-05-09T04:14:21.622Z,993.14
2019-05-09T04:15:19.698Z,993.16
2019-05-09T04:16:19.695Z,993.22
2019-05-09T04:17:19.689Z,993.17
2019-05-09T04:18:19.660Z,993.21
2019-05-09T04:19:19.658Z,993.21
2019-05-09T04:20:19.669Z,993.18
2019-05-09T04:21:19.629Z,993.22
2019-05-09T04:22:19.671Z,993.17
2019-05-09T04:23:19.604Z,993.22
2019-05-09T04:24:19.591Z,993.23
2019-05-09T04:25:19.602Z,993.27
2019-05-09T04:26:19.572Z,993.24
2019-05-09T04:27:19.610Z,993.21
2019-05-09T04:28:19.564Z,993.20
2019-05-09T04:29:19.573Z,993.31
2019-05-09T04:30:19.529Z,993.25
2019-05-09T04:31:19.529Z,993.23
2019-05-09T04:32:19.525Z,993.26
2019-05-09T04:33:19.526Z,993.21
2019-05-09T04:34:19.496Z,993.21
2019-05-09T04:35:19.494Z,993.21
2019-05-09T04:36:19.511Z,993.21
2019-05-09T04:37:19.498Z,993.26
2019-05-09T04:38:19.445Z,993.19
2019-05-09T04:39:23.548Z,993.21
2019-05-09T04:40:19.464Z,993.19
2019-05-09T04:41:23.939Z,993.14
2019-05-09T04:42:20.444Z,993.18
2019-05-09T04:43:27.300Z,993.18
2019-05-09T04:44:21.827Z,993.18
2019-05-09T04:45:19.390Z,993.20
2019-05-09T04:46:24.179Z,993.19
2019-05-09T04:47:20.408Z,993.20
2019-05-09T04:48:23.910Z,993.24
2019-05-09T04:49:19.354Z,993.21
2019-05-09T04:50:23.175Z,993.25
2019-05-09T04:51:20.343Z,993.31
2019-05-09T04:52:19.340Z,993.29
2019-05-09T04:53:19.305Z,993.26
2019-05-09T04:54:19.302Z,993.25
2019-05-09T04:55:19.266Z,993.30
2019-05-09T04:56:19.286Z,993.30
2019-05-09T04:57:19.313Z,993.29
2019-05-09T04:58:19.491Z,993.33
2019-05-09T04:59:19.314Z,993.37
2019-05-09T05:00:19.213Z,993.36
2019-05-09T05:01:19.776Z,993.41
2019-05-09T05:02:19.188Z,993.43
2019-05-09T05:03:19.218Z,993.38
2019-05-09T05:04:19.169Z,993.44
2019-05-09T05:05:19.155Z,993.42
2019-05-09T05:06:20.750Z,993.43
2019-05-09T05:07:19.148Z,993.34
2019-05-09T05:08:19.143Z,993.40
2019-05-09T05:09:20.933Z,993.39
2019-05-09T05:10:19.104Z,993.44
2019-05-09T05:11:19.097Z,993.45
2019-05-09T05:12:19.080Z,993.46
2019-05-09T05:13:26.283Z,993.42
2019-05-09T05:14:20.062Z,993.45
2019-05-09T05:15:20.578Z,993.38
2019-05-09T05:16:19.042Z,993.42
2019-05-09T05:17:19.027Z,993.39
2019-05-09T05:18:20.308Z,993.46
2019-05-09T05:19:19.007Z,993.46
2019-05-09T05:20:19.011Z,993.45
2019-05-09T05:21:20.410Z,993.44
2019-05-09T05:22:19.016Z,993.45
2019-05-09T05:23:18.982Z,993.43
2019-05-09T05:24:18.953Z,993.39
2019-05-09T05:25:18.955Z,993.46
2019-05-09T05:26:18.933Z,993.44
2019-05-09T05:27:19.091Z,993.44
2019-05-09T05:28:18.939Z,993.43
2019-05-09T05:29:18.901Z,993.42
2019-05-09T05:30:18.998Z,993.50
2019-05-09T05:31:18.878Z,993.49
2019-05-09T05:32:18.869Z,993.54
2019-05-09T05:33:18.856Z,993.53
2019-05-09T05:34:19.526Z,993.51
2019-05-09T05:35:18.846Z,993.54
2019-05-09T05:36:18.826Z,993.54
2019-05-09T05:37:18.812Z,993.58
2019-05-09T05:38:18.803Z,993.58
2019-05-09T05:39:18.813Z,993.64
2019-05-09T05:40:18.779Z,993.59
2019-05-09T05:41:18.769Z,993.55
2019-05-09T05:42:22.013Z,993.57
2019-05-09T05:43:18.760Z,993.55
2019-05-09T05:44:18.760Z,993.52
2019-05-09T05:45:18.729Z,993.53
2019-05-09T05:46:18.717Z,993.51
2019-05-09T05:47:18.708Z,993.51
2019-05-09T05:48:18.695Z,993.51
2019-05-09T05:49:18.800Z,993.47
2019-05-09T05:50:18.672Z,993.52
2019-05-09T05:51:18.662Z,993.49
2019-05-09T05:52:18.679Z,993.56
2019-05-09T05:53:18.645Z,993.56
2019-05-09T05:54:19.533Z,993.54
2019-05-09T05:55:18.620Z,993.50
2019-05-09T05:56:18.609Z,993.54
2019-05-09T05:57:18.601Z,993.55
2019-05-09T05:58:18.590Z,993.57
2019-05-09T05:59:18.598Z,993.55
2019-05-09T06:00:18.568Z,993.58
2019-05-09T06:01:18.945Z,993.44
2019-05-09T06:02:18.546Z,993.45
2019-05-09T06:03:18.534Z,993.44
2019-05-09T06:04:27.573Z,993.40
2019-05-09T06:05:18.852Z,993.45
2019-05-09T06:06:18.535Z,993.37
2019-05-09T06:07:18.618Z,993.44
2019-05-09T06:08:18.492Z,993.39
2019-05-09T06:09:19.100Z,993.40
2019-05-09T06:10:18.901Z,993.39
2019-05-09T06:11:18.466Z,993.38
2019-05-09T06:12:18.619Z,993.46
2019-05-09T06:13:18.440Z,993.48
2019-05-09T06:14:18.793Z,993.43
2019-05-09T06:15:18.537Z,993.40
2019-05-09T06:16:22.185Z,993.44
2019-05-09T06:17:18.388Z,993.44
2019-05-09T06:18:18.606Z,993.48
2019-05-09T06:19:18.453Z,993.49
2019-05-09T06:20:18.360Z,993.51
2019-05-09T06:21:18.342Z,993.50
2019-05-09T06:22:18.563Z,993.52
2019-05-09T06:23:18.333Z,993.54
2019-05-09T06:24:18.334Z,993.51
2019-05-09T06:25:20.938Z,993.51
2019-05-09T06:26:18.831Z,993.50
2019-05-09T06:27:18.426Z,993.46
2019-05-09T06:28:18.418Z,993.50
2019-05-09T06:29:18.275Z,993.57
2019-05-09T06:30:18.245Z,993.56
2019-05-09T06:31:28.289Z,993.57
2019-05-09T06:32:18.989Z,993.54
2019-05-09T06:33:18.252Z,993.55
2019-05-09T06:34:18.891Z,993.59
2019-05-09T06:35:18.194Z,993.49
2019-05-09T06:36:18.959Z,993.47
2019-05-09T06:37:18.522Z,993.45
2019-05-09T06:38:18.864Z,993.48
2019-05-09T06:39:18.216Z,993.47
2019-05-09T06:40:21.284Z,993.50
2019-05-09T06:41:18.141Z,993.47
2019-05-09T06:42:18.385Z,993.44
2019-05-09T06:43:18.396Z,993.50
2019-05-09T06:44:20.641Z,993.48
2019-05-09T06:45:18.124Z,993.53
2019-05-09T06:46:18.395Z,993.53
2019-05-09T06:47:18.604Z,993.49
2019-05-09T06:48:18.206Z,993.55
2019-05-09T06:49:27.569Z,993.55
2019-05-09T06:50:19.048Z,993.47
2019-05-09T06:51:21.227Z,993.53
2019-05-09T06:52:18.011Z,993.57
2019-05-09T06:53:18.217Z,993.52
2019-05-09T06:54:17.992Z,993.60
2019-05-09T06:55:17.997Z,993.56
2019-05-09T06:56:17.974Z,993.55
2019-05-09T06:57:18.677Z,993.57
2019-05-09T06:58:18.426Z,993.52
2019-05-09T06:59:19.082Z,993.51
2019-05-09T07:00:17.967Z,993.52
2019-05-09T07:01:18.367Z,993.43
2019-05-09T07:02:17.913Z,993.38
2019-05-09T07:03:18.497Z,993.44
2019-05-09T07:04:18.403Z,993.47
2019-05-09T07:05:18.025Z,993.50
2019-05-09T07:06:17.908Z,993.46
2019-05-09T07:07:17.849Z,993.48
2019-05-09T07:08:18.381Z,993.48
2019-05-09T07:09:17.826Z,993.50
2019-05-09T07:10:17.909Z,993.47
2019-05-09T07:11:19.198Z,993.45
2019-05-09T07:12:18.087Z,993.48
2019-05-09T07:13:18.323Z,993.45
2019-05-09T07:14:28.372Z,993.53
2019-05-09T07:15:18.758Z,993.45
2019-05-09T07:16:18.650Z,993.46
2019-05-09T07:17:18.420Z,993.49
2019-05-09T07:18:18.417Z,993.46
2019-05-09T07:19:17.717Z,993.48
2019-05-09T07:20:18.347Z,993.45
2019-05-09T07:21:19.007Z,993.41
2019-05-09T07:22:18.596Z,993.40
2019-05-09T07:23:17.871Z,993.50
2019-05-09T07:24:18.482Z,993.43
2019-05-09T07:25:18.583Z,993.54
2019-05-09T07:26:17.887Z,993.48
2019-05-09T07:27:17.965Z,993.50
2019-05-09T07:28:18.066Z,993.47
2019-05-09T07:29:17.929Z,993.43
2019-05-09T07:30:18.082Z,993.49
2019-05-09T07:31:17.808Z,993.47
2019-05-09T07:32:18.222Z,993.40
2019-05-09T07:33:19.026Z,993.36
2019-05-09T07:34:18.465Z,993.35
2019-05-09T07:35:18.599Z,993.31
2019-05-09T07:36:18.932Z,993.40
2019-05-09T07:37:18.632Z,993.37
2019-05-09T07:38:17.849Z,993.35
2019-05-09T07:39:17.683Z,993.36
2019-05-09T07:40:18.193Z,993.39
2019-05-09T07:41:17.897Z,993.41
2019-05-09T07:42:18.121Z,993.40
2019-05-09T07:43:18.105Z,993.39
2019-05-09T07:44:18.235Z,993.40
2019-05-09T07:45:18.013Z,993.34
2019-05-09T07:46:17.772Z,993.40
2019-05-09T07:47:17.802Z,993.44
2019-05-09T07:48:18.136Z,993.40
2019-05-09T07:49:17.610Z,993.36
2019-05-09T07:50:18.903Z,993.35
2019-05-09T07:51:18.110Z,993.31
2019-05-09T07:52:18.630Z,993.32
2019-05-09T07:53:17.761Z,993.30
2019-05-09T07:54:24.685Z,993.27
2019-05-09T07:55:18.338Z,993.28
2019-05-09T07:56:18.694Z,993.27
2019-05-09T07:57:18.207Z,993.26
2019-05-09T07:58:18.667Z,993.28
2019-05-09T07:59:18.104Z,993.29
2019-05-09T08:00:18.386Z,993.26
2019-05-09T08:01:19.021Z,993.25
2019-05-09T08:02:17.763Z,993.25
2019-05-09T08:03:18.103Z,993.28
2019-05-09T08:04:18.283Z,993.26
2019-05-09T08:05:17.461Z,993.23
2019-05-09T08:06:18.412Z,993.25
2019-05-09T08:07:17.645Z,993.27
2019-05-09T08:08:18.580Z,993.21
2019-05-09T08:09:18.708Z,993.24
2019-05-09T08:10:17.645Z,993.23
2019-05-09T08:11:17.998Z,993.18
2019-05-09T08:12:17.946Z,993.17
2019-05-09T08:13:18.239Z,993.14
2019-05-09T08:14:17.690Z,993.13
2019-05-09T08:15:20.031Z,993.10
2019-05-09T08:16:18.640Z,993.08
2019-05-09T08:17:18.143Z,993.13
2019-05-09T08:18:17.509Z,993.19
2019-05-09T08:19:18.072Z,993.11
2019-05-09T08:20:17.604Z,993.08
2019-05-09T08:21:18.048Z,993.18
2019-05-09T08:22:23.097Z,993.09
2019-05-09T08:23:18.142Z,993.05
2019-05-09T08:24:18.315Z,993.10
2019-05-09T08:25:18.319Z,993.12
2019-05-09T08:26:18.908Z,993.09
2019-05-09T08:27:17.573Z,993.09
2019-05-09T08:28:17.714Z,993.11
2019-05-09T08:29:19.548Z,993.12
2019-05-09T08:30:18.025Z,993.11
2019-05-09T08:31:17.837Z,993.07
2019-05-09T08:32:18.069Z,993.09
2019-05-09T08:33:18.403Z,993.06
2019-05-09T08:34:18.703Z,993.14
2019-05-09T08:35:18.301Z,993.07
2019-05-09T08:36:18.036Z,993.08
2019-05-09T08:37:17.570Z,993.08
2019-05-09T08:38:17.917Z,993.08
2019-05-09T08:39:20.182Z,993.10
2019-05-09T08:40:21.084Z,993.08
2019-05-09T08:41:18.662Z,993.08
2019-05-09T08:42:18.047Z,993.05
2019-05-09T08:43:19.538Z,993.05
2019-05-09T08:44:18.641Z,993.06
2019-05-09T08:45:26.886Z,993.03
2019-05-09T08:46:18.241Z,993.01
2019-05-09T08:47:18.473Z,993.01
2019-05-09T08:48:18.416Z,993.04
2019-05-09T08:49:18.243Z,993.06
2019-05-09T08:50:17.594Z,993.08
2019-05-09T08:51:18.021Z,993.08
2019-05-09T08:52:19.544Z,993.03
2019-05-09T08:53:18.805Z,993.03
2019-05-09T08:54:18.413Z,993.06
2019-05-09T08:55:17.494Z,993.04
2019-05-09T08:56:17.829Z,993.04
2019-05-09T08:57:18.202Z,993.08
2019-05-09T08:58:19.584Z,993.05
2019-05-09T08:59:18.328Z,993.08
2019-05-09T09:00:18.890Z,993.10
2019-05-09T09:01:27.517Z,993.08
2019-05-09T09:02:21.992Z,993.07
2019-05-09T09:03:18.519Z,993.12
2019-05-09T09:04:18.957Z,993.09
2019-05-09T09:05:18.686Z,993.07
2019-05-09T09:06:18.346Z,993.12
2019-05-09T09:07:18.712Z,993.10
2019-05-09T09:08:18.315Z,993.13
2019-05-09T09:09:17.991Z,993.03
2019-05-09T09:10:18.636Z,993.06
2019-05-09T09:11:18.757Z,993.01
2019-05-09T09:12:27.035Z,993.01
2019-05-09T09:13:17.634Z,992.97
2019-05-09T09:14:18.508Z,992.95
2019-05-09T09:15:18.043Z,992.98
2019-05-09T09:16:21.626Z,992.91
2019-05-09T09:17:18.772Z,992.89
2019-05-09T09:18:17.984Z,992.90
2019-05-09T09:19:17.905Z,992.91
2019-05-09T09:20:18.206Z,992.95
2019-05-09T09:21:18.340Z,992.96
2019-05-09T09:22:17.988Z,992.97
2019-05-09T09:23:18.096Z,992.98
2019-05-09T09:24:17.679Z,992.95
2019-05-09T09:25:18.383Z,992.99
2019-05-09T09:26:18.380Z,992.98
2019-05-09T09:27:18.250Z,993.02
2019-05-09T09:28:18.250Z,993.04
2019-05-09T09:29:17.813Z,992.99
2019-05-09T09:30:21.692Z,993.01
2019-05-09T09:31:18.034Z,993.00
2019-05-09T09:32:18.682Z,992.99
2019-05-09T09:33:17.605Z,993.00
2019-05-09T09:34:18.140Z,993.00
2019-05-09T09:35:18.502Z,992.98
2019-05-09T09:36:17.877Z,993.04
2019-05-09T09:37:18.555Z,993.02
2019-05-09T09:38:17.678Z,993.10
2019-05-09T09:39:18.347Z,993.09
2019-05-09T09:40:17.707Z,993.00
2019-05-09T09:41:18.159Z,993.03
2019-05-09T09:42:19.459Z,992.98
2019-05-09T09:43:17.645Z,993.06
2019-05-09T09:44:18.221Z,993.08
2019-05-09T09:45:18.427Z,993.05
2019-05-09T09:46:18.151Z,993.03
2019-05-09T09:47:22.385Z,992.95
2019-05-09T09:48:18.130Z,993.05
2019-05-09T09:49:18.074Z,993.00
2019-05-09T09:50:17.708Z,992.99
2019-05-09T09:51:18.344Z,992.92
2019-05-09T09:52:18.519Z,992.99
2019-05-09T09:53:17.806Z,992.96
2019-05-09T09:54:18.635Z,992.94
2019-05-09T09:55:18.290Z,992.96
2019-05-09T09:56:17.847Z,992.95
2019-05-09T09:57:18.827Z,992.91
2019-05-09T09:58:18.699Z,992.94
2019-05-09T09:59:16.015Z,992.93
2019-05-09T10:00:18.081Z,992.89
2019-05-09T10:01:18.110Z,992.96
2019-05-09T10:02:15.984Z,992.87
2019-05-09T10:03:18.518Z,992.92
2019-05-09T10:04:23.538Z,992.89
2019-05-09T10:05:18.311Z,992.94
2019-05-09T10:06:15.918Z,992.92
2019-05-09T10:07:15.930Z,992.95
2019-05-09T10:08:18.139Z,992.91
2019-05-09T10:09:17.508Z,992.91
2019-05-09T10:10:18.400Z,992.94
2019-05-09T10:11:17.934Z,992.95
2019-05-09T10:12:18.025Z,992.92
2019-05-09T10:13:18.300Z,992.92
2019-05-09T10:14:18.510Z,992.94
2019-05-09T10:15:15.821Z,992.91
2019-05-09T10:16:28.594Z,992.96
2019-05-09T10:17:17.940Z,992.94
2019-05-09T10:18:18.106Z,992.98
2019-05-09T10:19:15.774Z,992.99
2019-05-09T10:20:18.014Z,992.97
2019-05-09T10:21:15.754Z,993.05
2019-05-09T10:22:22.944Z,993.04
2019-05-09T10:23:18.806Z,993.03
2019-05-09T10:24:17.495Z,993.13
2019-05-09T10:25:18.130Z,993.13
2019-05-09T10:26:17.785Z,993.10
2019-05-09T10:27:18.284Z,993.07
2019-05-09T10:28:21.591Z,993.07
2019-05-09T10:29:17.719Z,993.08
2019-05-09T10:30:17.896Z,993.08
2019-05-09T10:31:15.656Z,993.02
2019-05-09T10:32:17.917Z,993.10
2019-05-09T10:33:17.559Z,993.05
2019-05-09T10:34:17.648Z,993.07
2019-05-09T10:35:17.664Z,993.05
2019-05-09T10:36:15.607Z,993.07
2019-05-09T10:37:15.585Z,993.09
2019-05-09T10:38:18.180Z,993.12
2019-05-09T10:39:15.564Z,993.11
2019-05-09T10:40:15.551Z,993.12
2019-05-09T10:41:15.544Z,993.10
2019-05-09T10:42:15.535Z,993.14
2019-05-09T10:43:30.700Z,993.11
2019-05-09T10:44:18.045Z,993.15
2019-05-09T10:45:17.805Z,993.12
2019-05-09T10:46:19.122Z,993.17
2019-05-09T10:47:15.479Z,993.07
2019-05-09T10:48:15.477Z,993.10
2019-05-09T10:49:15.474Z,993.15
2019-05-09T10:50:18.306Z,993.14
2019-05-09T10:51:15.430Z,993.15
2019-05-09T10:52:18.054Z,993.15
2019-05-09T10:53:17.844Z,993.21
2019-05-09T10:54:15.418Z,993.18
2019-05-09T10:55:17.711Z,993.20
2019-05-09T10:56:15.378Z,993.21
2019-05-09T10:57:15.367Z,993.19
2019-05-09T10:58:15.357Z,993.18
2019-05-09T10:59:15.364Z,993.17
2019-05-09T11:00:15.336Z,993.21
2019-05-09T11:01:15.330Z,993.21
2019-05-09T11:02:17.468Z,993.22
2019-05-09T11:03:17.903Z,993.26
2019-05-09T11:04:17.869Z,993.24
2019-05-09T11:05:15.280Z,993.32
2019-05-09T11:06:18.028Z,993.29
2019-05-09T11:07:15.295Z,993.29
2019-05-09T11:08:15.250Z,993.22
2019-05-09T11:09:18.019Z,993.32
2019-05-09T11:10:25.936Z,993.28
2019-05-09T11:11:18.155Z,993.24
2019-05-09T11:12:15.204Z,993.31
2019-05-09T11:13:15.193Z,993.25
2019-05-09T11:14:31.625Z,993.27
2019-05-09T11:15:17.745Z,993.34
2019-05-09T11:16:15.165Z,993.27
2019-05-09T11:17:19.267Z,993.27
2019-05-09T11:18:18.385Z,993.21
2019-05-09T11:19:15.134Z,993.29
2019-05-09T11:20:15.137Z,993.27
2019-05-09T11:21:15.109Z,993.24
2019-05-09T11:22:15.106Z,993.30
2019-05-09T11:23:15.088Z,993.36
2019-05-09T11:24:15.096Z,993.37
2019-05-09T11:25:15.084Z,993.34
2019-05-09T11:26:17.672Z,993.37
2019-05-09T11:27:15.048Z,993.37
2019-05-09T11:28:15.712Z,993.38
2019-05-09T11:29:15.027Z,993.38
2019-05-09T11:30:15.037Z,993.36
2019-05-09T11:31:18.030Z,993.33
2019-05-09T11:32:14.990Z,993.37
2019-05-09T11:33:14.979Z,993.32
2019-05-09T11:34:14.971Z,993.34
2019-05-09T11:35:14.983Z,993.36
2019-05-09T11:36:17.454Z,993.38
2019-05-09T11:37:15.943Z,993.40
2019-05-09T11:38:17.655Z,993.42
2019-05-09T11:39:34.117Z,993.39
2019-05-09T11:40:15.976Z,993.40
2019-05-09T11:41:15.113Z,993.40
2019-05-09T11:42:14.895Z,993.42
2019-05-09T11:43:14.877Z,993.38
2019-05-09T11:44:14.861Z,993.39
2019-05-09T11:45:14.851Z,993.35
2019-05-09T11:46:14.858Z,993.42
2019-05-09T11:47:28.568Z,993.39
2019-05-09T11:48:15.819Z,993.41
2019-05-09T11:49:14.813Z,993.41
2019-05-09T11:50:14.802Z,993.37
2019-05-09T11:51:14.805Z,993.48
2019-05-09T11:52:14.783Z,993.44
2019-05-09T11:53:14.764Z,993.45
2019-05-09T11:54:17.259Z,993.53
2019-05-09T11:55:29.783Z,993.48
2019-05-09T11:56:17.943Z,993.52
2019-05-09T11:57:14.737Z,993.51
2019-05-09T11:58:14.711Z,993.43
2019-05-09T11:59:14.702Z,993.49
2019-05-09T12:00:14.699Z,993.50
2019-05-09T12:01:14.697Z,993.52
2019-05-09T12:02:14.667Z,993.57
2019-05-09T12:03:14.659Z,993.52
2019-05-09T12:04:14.645Z,993.51
2019-05-09T12:05:14.639Z,993.50
2019-05-09T12:06:16.190Z,993.52
2019-05-09T12:07:14.677Z,993.53
2019-05-09T12:08:14.890Z,993.54
2019-05-09T12:09:15.069Z,993.59
2019-05-09T12:10:14.591Z,993.60
2019-05-09T12:11:14.576Z,993.52
2019-05-09T12:12:14.759Z,993.53
2019-05-09T12:13:14.558Z,993.53
2019-05-09T12:14:14.540Z,993.56
2019-05-09T12:15:14.535Z,993.58
2019-05-09T12:16:14.518Z,993.68
2019-05-09T12:17:14.536Z,993.65
2019-05-09T12:18:14.494Z,993.66
2019-05-09T12:19:14.483Z,993.66
2019-05-09T12:20:14.473Z,993.62
2019-05-09T12:21:14.464Z,993.63
2019-05-09T12:22:14.479Z,993.68
2019-05-09T12:23:14.441Z,993.61
2019-05-09T12:24:14.434Z,993.65
2019-05-09T12:25:14.419Z,993.65
2019-05-09T12:26:14.421Z,993.70
2019-05-09T12:27:14.417Z,993.66
2019-05-09T12:28:14.387Z,993.65
2019-05-09T12:29:14.378Z,993.66